Aérodrome :
LOGIN :

S'inscrire | Disclaimer

   EN    FR    IT 

 










Légende :    VFR   VFR Marginal   IFR   IFR Intensif   IFR Très Intensif
Visi : 
Plafond : 
>= 8 km
>= 3000ft
5 à 8 km
1000 à 3000 ft
1500m à 5 km
500 à 1000 ft
800 à 1500m
200 à 500 ft
< 800m
< 200 ft
Symboles :   Orages  Brouillard  Fortes neiges  Fortes précipitations  Vent > 20 kt
SIGMETs :   Divers  Orages  Givrage  Turbulence  Onde Orograph.  Cendres Volcan.






- Altitude de l'aérodrome : 163 ft
- Code IATA : IST


LTBA - Ataturk

DERNIER METAR :
  • 070150Z 19006KT CAVOK 19/17 Q1008 NOSIG RMK RWY17 32002KT RWY05 22005KT RWY23 22006KT

METARs EXPIRÉS :
  • 070120Z 35007KT CAVOK 19/16 Q1007 NOSIG RMK RWY17 36006KT RWY05 02005KT RWY23 04007KT
  • 070050Z 34006KT CAVOK 18/16 Q1008 NOSIG RMK RWY17 31004KT RWY05 01005KT 290V030 RWY23 02004KT 340V050
  • 070020Z 31004KT 240V340 CAVOK 19/16 Q1008 NOSIG
  • 062350Z 26003KT 220V290 CAVOK 19/16 Q1008 NOSIG RMK RWY17 26004KT 220V290 RWY05 27004KT 230V300 RWY23 26004KT 210V300
  • 062320Z 32008KT CAVOK 20/16 Q1008 NOSIG RMK RWY17 32006KT RWY05 33005KT 200V010 RWY23 35007KT

TAF TAF LTBA
Valide du 07 à 00h jusqu'au 08 à 06h UTC


062240Z 0700/0806 01008KT CAVOK
BECMG 0706/0709 23010KT
BECMG 0716/0719 01008KT



MET'MAP, la Météo Aéronautique d'un coup d'oeil ! - Copyright ORBIFLY Décembre 2007 - Disclaimer

ORBIFLY MET'MAP TEAM :

Programmation & Développement : Alexandra Zaïnal
Sur une idée originale de : Baudouin d'Aumeries
Assistance à la programmation : Marc-Olivier Méhu
Soutien technique & logistique : Manuel Goepfert

Contact : metmap@orbifly.com




SOURCES & CREDITS :

   NOAA